Greenwood, Colorado
Current Conditions -  °F | °C
As of 1:35 AM on Sunday 26 Oct 2014 (Local Time) from K1V6 Reporting Station
Clear Clear  
Wind Chill: 64°   Ceiling: Unl
Heat Index: 64°   Visibility: 10mi
Dew Point: 28°   Wind: 16mph
Humidity: 26%   Direction: 290°WNW
Pressure: 30.01"   Gusts: NA
Location:  38.122°N, 105.131°W
Report Text: K1V6 260735Z AUTO 29014KT 10SM CLR 18/M02 A3001 RMK AO2
Loading
Personal Weather Stations






























Interactive Weather Map
Tropical Storm Tracking
New forecast layout! Learn more

10-Day Weather Forecast

Advertisements
Track Severe Weather on mobile